EWG7VN EDDH-LOWW
Flight info
| Callsign | EWG7VN |
|---|---|
| Flight time | N/A |
| Altitude | 37000 |
| Route | RAMAR6B RAMAR Z998 RATMO DCT HDO DCT EVIKU DCT BITSI DCT MIKOV MIKOV8W |
| Aircraft | A21N/M-SDE2E3FGHIRWXY/LB1 |
Departure
| Time | 2026-05-01 15:06 |
|---|---|
| Airport | Hamburg Helmut Schmidt Airport (EDDH) |
Arrival
| Time | N/A |
|---|---|
| Airport | Vienna International Airport (LOWW) |
| Time | Latitude | Longitude | Altitude | Speed | Heading |
|---|---|---|---|---|---|
| 2026-05-01 14:38 | 53.62738 | 10.00305 | 54 ft | 0 kts | 62° |
| 2026-05-01 14:57 | 53.62732 | 10.00286 | 52 ft | 4 kts | 62° |
| 2026-05-01 14:58 | 53.62719 | 10.00246 | 49 ft | 3 kts | 62° |
| 2026-05-01 14:58 | 53.62707 | 10.00216 | 49 ft | 4 kts | 32° |
| 2026-05-01 14:58 | 53.62686 | 10.00210 | 50 ft | 4 kts | 339° |
| 2026-05-01 14:58 | 53.62671 | 10.00222 | 52 ft | 1 kts | 333° |
| 2026-05-01 14:59 | 53.62669 | 10.00224 | 52 ft | 0 kts | 333° |
| 2026-05-01 15:01 | 53.62674 | 10.00219 | 51 ft | 3 kts | 333° |
| 2026-05-01 15:01 | 53.62703 | 10.00194 | 48 ft | 7 kts | 333° |
| 2026-05-01 15:02 | 53.62752 | 10.00152 | 54 ft | 9 kts | 333° |
| 2026-05-01 15:02 | 53.62791 | 10.00119 | 53 ft | 10 kts | 333° |
| 2026-05-01 15:02 | 53.62887 | 10.00042 | 54 ft | 13 kts | 341° |
| 2026-05-01 15:02 | 53.62972 | 9.99979 | 51 ft | 14 kts | 333° |
| 2026-05-01 15:03 | 53.63064 | 9.99898 | 54 ft | 16 kts | 333° |
| 2026-05-01 15:03 | 53.63166 | 9.99809 | 54 ft | 17 kts | 333° |
| 2026-05-01 15:03 | 53.63252 | 9.99746 | 54 ft | 12 kts | 0° |
| 2026-05-01 15:03 | 53.63317 | 9.99840 | 54 ft | 14 kts | 50° |
| 2026-05-01 15:04 | 53.63381 | 9.99968 | 54 ft | 15 kts | 50° |
| 2026-05-01 15:04 | 53.63445 | 10.00098 | 54 ft | 12 kts | 50° |
| 2026-05-01 15:04 | 53.63514 | 10.00143 | 52 ft | 9 kts | 344° |
| 2026-05-01 15:04 | 53.63574 | 10.00070 | 57 ft | 12 kts | 321° |
| 2026-05-01 15:05 | 53.63612 | 9.99985 | 51 ft | 9 kts | 253° |
| 2026-05-01 15:05 | 53.63570 | 9.99901 | 56 ft | 11 kts | 229° |
| 2026-05-01 15:05 | 53.63375 | 9.99505 | 52 ft | 81 kts | 230° |
| 2026-05-01 15:05 | 53.62870 | 9.98483 | 49 ft | 144 kts | 229° |
| 2026-05-01 15:06 | 53.62160 | 9.97044 | 375 ft | 160 kts | 228° |
| 2026-05-01 15:06 | 53.61465 | 9.95594 | 1029 ft | 164 kts | 227° |
| 2026-05-01 15:06 | 53.60712 | 9.94121 | 1699 ft | 169 kts | 226° |
| 2026-05-01 15:06 | 53.59957 | 9.92588 | 2334 ft | 171 kts | 227° |
| 2026-05-01 15:07 | 53.59199 | 9.91023 | 3039 ft | 174 kts | 227° |
| 2026-05-01 15:07 | 53.58410 | 9.89387 | 3562 ft | 186 kts | 227° |
| 2026-05-01 15:07 | 53.57565 | 9.87641 | 4076 ft | 200 kts | 227° |
| 2026-05-01 15:07 | 53.56731 | 9.85553 | 4510 ft | 232 kts | 246° |
| 2026-05-01 15:08 | 53.56537 | 9.82803 | 5289 ft | 246 kts | 277° |
| 2026-05-01 15:08 | 53.57242 | 9.80219 | 6201 ft | 253 kts | 309° |
| 2026-05-01 15:08 | 53.58701 | 9.78568 | 7059 ft | 259 kts | 342° |
| 2026-05-01 15:08 | 53.60494 | 9.78420 | 7915 ft | 262 kts | 11° |
| 2026-05-01 15:09 | 53.62252 | 9.79245 | 8765 ft | 261 kts | 27° |
| 2026-05-01 15:09 | 53.63761 | 9.80913 | 9480 ft | 265 kts | 44° |
| 2026-05-01 15:09 | 53.65157 | 9.83076 | 10092 ft | 281 kts | 46° |
| 2026-05-01 15:09 | 53.66660 | 9.85415 | 10445 ft | 306 kts | 45° |
| 2026-05-01 15:10 | 53.68112 | 9.88172 | 10771 ft | 324 kts | 63° |
| 2026-05-01 15:10 | 53.68703 | 9.95859 | 11367 ft | 353 kts | 107° |
| 2026-05-01 15:10 | 53.67717 | 9.99687 | 11931 ft | 359 kts | 121° |
| 2026-05-01 15:11 | 53.66519 | 10.03350 | 12660 ft | 364 kts | 121° |
| 2026-05-01 15:11 | 53.64165 | 10.11029 | 14207 ft | 372 kts | 118° |
| 2026-05-01 15:11 | 53.63014 | 10.14968 | 14851 ft | 377 kts | 117° |
| 2026-05-01 15:12 | 53.61867 | 10.18953 | 15490 ft | 381 kts | 117° |
| 2026-05-01 15:12 | 53.59538 | 10.27081 | 16733 ft | 389 kts | 117° |
| 2026-05-01 15:12 | 53.58358 | 10.31190 | 17376 ft | 392 kts | 117° |
| 2026-05-01 15:13 | 53.54754 | 10.43694 | 19032 ft | 404 kts | 116° |
| 2026-05-01 15:14 | 53.52271 | 10.52268 | 20028 ft | 410 kts | 116° |
| 2026-05-01 15:14 | 53.51019 | 10.56568 | 20602 ft | 411 kts | 116° |
| 2026-05-01 15:14 | 53.48490 | 10.65231 | 21718 ft | 414 kts | 116° |
| 2026-05-01 15:15 | 53.45941 | 10.73945 | 22815 ft | 420 kts | 117° |
| 2026-05-01 15:15 | 53.43336 | 10.82814 | 23792 ft | 427 kts | 117° |
| 2026-05-01 15:16 | 53.40704 | 10.91763 | 24604 ft | 435 kts | 116° |
| 2026-05-01 15:16 | 53.37997 | 11.00904 | 25434 ft | 441 kts | 116° |
| 2026-05-01 15:17 | 53.35253 | 11.10151 | 26274 ft | 446 kts | 116° |
| 2026-05-01 15:18 | 53.31081 | 11.24129 | 27564 ft | 450 kts | 116° |
| 2026-05-01 15:18 | 53.29674 | 11.28827 | 27938 ft | 453 kts | 116° |
| 2026-05-01 15:19 | 53.24647 | 11.42032 | 29282 ft | 453 kts | 135° |
| 2026-05-01 15:19 | 53.20014 | 11.49136 | 30244 ft | 452 kts | 137° |
| 2026-05-01 15:19 | 53.17686 | 11.52656 | 30672 ft | 451 kts | 137° |
| 2026-05-01 15:20 | 53.13072 | 11.59688 | 31452 ft | 449 kts | 136° |
| 2026-05-01 15:20 | 53.10808 | 11.63150 | 31843 ft | 448 kts | 136° |
| 2026-05-01 15:20 | 53.08512 | 11.66658 | 32215 ft | 447 kts | 136° |
| 2026-05-01 15:21 | 53.06223 | 11.70150 | 32599 ft | 446 kts | 136° |
| 2026-05-01 15:21 | 53.03938 | 11.73632 | 32958 ft | 445 kts | 136° |
| 2026-05-01 15:21 | 53.01657 | 11.77095 | 33326 ft | 444 kts | 137° |
| 2026-05-01 15:21 | 52.99404 | 11.80605 | 33652 ft | 444 kts | 133° |
| 2026-05-01 15:22 | 52.95528 | 11.88536 | 34307 ft | 441 kts | 126° |
| 2026-05-01 15:22 | 52.93703 | 11.92615 | 34572 ft | 441 kts | 126° |
| 2026-05-01 15:22 | 52.91890 | 11.96631 | 34807 ft | 441 kts | 126° |
| 2026-05-01 15:23 | 52.90046 | 12.00682 | 35026 ft | 441 kts | 126° |
| 2026-05-01 15:23 | 52.88187 | 12.04726 | 35242 ft | 441 kts | 126° |
| 2026-05-01 15:23 | 52.86330 | 12.08771 | 35443 ft | 442 kts | 126° |
| 2026-05-01 15:23 | 52.84467 | 12.12821 | 35646 ft | 442 kts | 126° |
| 2026-05-01 15:24 | 52.82605 | 12.16869 | 35845 ft | 442 kts | 126° |
| 2026-05-01 15:24 | 52.80738 | 12.20916 | 36041 ft | 443 kts | 126° |
| 2026-05-01 15:24 | 52.78870 | 12.24959 | 36239 ft | 443 kts | 126° |
| 2026-05-01 15:24 | 52.77022 | 12.28950 | 36435 ft | 443 kts | 126° |
| 2026-05-01 15:25 | 52.75148 | 12.32993 | 36634 ft | 443 kts | 126° |
| 2026-05-01 15:25 | 52.73275 | 12.37028 | 36845 ft | 443 kts | 126° |
| 2026-05-01 15:25 | 52.71370 | 12.41028 | 37019 ft | 444 kts | 130° |
| 2026-05-01 15:25 | 52.69142 | 12.44572 | 37183 ft | 446 kts | 141° |
| 2026-05-01 15:26 | 52.66634 | 12.47564 | 37345 ft | 447 kts | 144° |
| 2026-05-01 15:26 | 52.64056 | 12.50461 | 37431 ft | 448 kts | 145° |
| 2026-05-01 15:26 | 52.58919 | 12.56228 | 37404 ft | 447 kts | 144° |
| 2026-05-01 15:27 | 52.53827 | 12.62009 | 37384 ft | 448 kts | 144° |
| 2026-05-01 15:28 | 52.46137 | 12.70716 | 37391 ft | 448 kts | 144° |
| 2026-05-01 15:28 | 52.40996 | 12.76512 | 37380 ft | 448 kts | 144° |
| 2026-05-01 15:29 | 52.33283 | 12.85186 | 37380 ft | 449 kts | 144° |
| 2026-05-01 15:30 | 52.23003 | 12.96679 | 37383 ft | 449 kts | 144° |
| 2026-05-01 15:31 | 52.07511 | 13.13891 | 37372 ft | 450 kts | 144° |
| 2026-05-01 15:32 | 51.97187 | 13.25273 | 37382 ft | 450 kts | 144° |
| 2026-05-01 15:34 | 51.81645 | 13.42279 | 37375 ft | 450 kts | 144° |